Terminal Aerodrome Forecast
Issued by NWS

Home | Current Version | Previous Version | Text Only | Print | Product List | Glossary On
Versions: 1 2 3 4 5 6 7 8 9 10 11 12
000
FTUS43 KGRB 291138
TAFOSH
TAF
KOSH 291138Z 2912/3012 26008KT P6SM SCT035 BKN080
      TEMPO 2912/2913 BKN035
     FM291300 26013G25KT P6SM SCT070
     FM291600 26020G32KT P6SM SCT100
     FM300000 25012G20KT P6SM SKC
     FM300300 25006KT P6SM SKC=

USA.gov is the U.S. government's official web portal to all federal, state and local government web resources and services.